createdAt,value
2022-11-19T00:00:17.734Z,0.00
2022-11-19T00:01:17.772Z,1.54
2022-11-19T00:02:17.882Z,0.00
2022-11-19T00:03:17.862Z,0.00
2022-11-19T00:04:17.864Z,0.00
2022-11-19T00:05:17.855Z,0.00
2022-11-19T00:06:17.903Z,0.00
2022-11-19T00:07:17.963Z,0.00
2022-11-19T00:08:17.948Z,0.90
2022-11-19T00:09:18.323Z,0.00
2022-11-19T00:10:17.975Z,0.00
2022-11-19T00:11:17.995Z,0.00
2022-11-19T00:12:18.022Z,0.00
2022-11-19T00:13:18.043Z,0.00
2022-11-19T00:14:18.034Z,0.58
2022-11-19T00:15:18.046Z,0.00
2022-11-19T00:16:18.033Z,1.22
2022-11-19T00:17:18.028Z,0.00
2022-11-19T00:18:18.025Z,0.00
2022-11-19T00:19:18.387Z,0.69
2022-11-19T00:20:18.030Z,0.00
2022-11-19T00:21:18.086Z,1.01
2022-11-19T00:22:18.127Z,0.00
2022-11-19T00:23:18.156Z,1.22
2022-11-19T00:24:18.207Z,0.00
2022-11-19T00:25:18.266Z,0.00
2022-11-19T00:26:18.338Z,1.12
2022-11-19T00:27:18.387Z,0.00
2022-11-19T00:28:18.377Z,0.58
2022-11-19T00:29:18.482Z,1.22
2022-11-19T00:30:40.779Z,0.00
2022-11-19T00:31:18.438Z,1.22
2022-11-19T00:32:18.466Z,1.01
2022-11-19T00:33:18.518Z,0.00
2022-11-19T00:34:18.558Z,0.00
2022-11-19T00:35:18.589Z,0.00
2022-11-19T00:36:18.623Z,0.00
2022-11-19T00:37:18.612Z,0.00
2022-11-19T00:38:18.687Z,0.00
2022-11-19T00:39:19.030Z,0.00
2022-11-19T00:40:18.719Z,0.90
2022-11-19T00:41:18.775Z,0.00
2022-11-19T00:42:18.788Z,0.00
2022-11-19T00:43:18.847Z,0.00
2022-11-19T00:44:18.848Z,0.00
2022-11-19T00:45:18.870Z,0.00
2022-11-19T00:46:18.873Z,0.00
2022-11-19T00:47:18.862Z,0.00
2022-11-19T00:48:18.861Z,1.44
2022-11-19T00:49:19.146Z,0.00
2022-11-19T00:50:18.971Z,3.61
2022-11-19T00:51:19.012Z,0.00
2022-11-19T00:52:19.071Z,0.00
2022-11-19T00:53:19.106Z,0.00
2022-11-19T00:54:19.102Z,0.00
2022-11-19T00:55:19.101Z,1.12
2022-11-19T00:56:19.159Z,0.00
2022-11-19T00:57:19.141Z,0.00
2022-11-19T00:58:19.141Z,0.00
2022-11-19T00:59:19.398Z,0.69
2022-11-19T01:00:19.191Z,0.00
2022-11-19T01:01:19.269Z,0.00
2022-11-19T01:02:19.224Z,0.00
2022-11-19T01:03:19.235Z,0.47
2022-11-19T01:04:19.272Z,0.00
2022-11-19T01:05:19.333Z,0.47
2022-11-19T01:06:19.785Z,0.00
2022-11-19T01:07:19.476Z,0.00
2022-11-19T01:08:19.402Z,1.75
2022-11-19T01:09:19.805Z,0.00
2022-11-19T01:10:19.452Z,2.17
2022-11-19T01:11:19.464Z,0.69
2022-11-19T01:12:19.524Z,1.01
2022-11-19T01:13:19.534Z,0.00
2022-11-19T01:14:19.604Z,2.17
2022-11-19T01:15:19.664Z,0.00
2022-11-19T01:16:19.724Z,0.00
2022-11-19T01:17:19.733Z,0.00
2022-11-19T01:18:19.774Z,1.01
2022-11-19T01:19:19.930Z,0.80
2022-11-19T01:20:19.817Z,0.00
2022-11-19T01:21:19.784Z,0.00
2022-11-19T01:22:19.835Z,1.44
2022-11-19T01:23:19.805Z,1.75
2022-11-19T01:24:19.836Z,0.00
2022-11-19T01:25:19.875Z,1.54
2022-11-19T01:26:19.916Z,0.00
2022-11-19T01:27:19.945Z,0.00
2022-11-19T01:28:19.955Z,0.00
2022-11-19T01:29:20.303Z,0.00
2022-11-19T01:30:20.016Z,0.58
2022-11-19T01:31:19.995Z,0.00
2022-11-19T01:32:19.998Z,0.00
2022-11-19T01:33:20.006Z,0.80
2022-11-19T01:34:20.044Z,0.00
2022-11-19T01:35:20.066Z,0.58
2022-11-19T01:36:20.056Z,0.00
2022-11-19T01:37:20.077Z,0.00
2022-11-19T01:38:20.118Z,0.00
2022-11-19T01:39:20.419Z,0.69
2022-11-19T01:40:20.257Z,0.00
2022-11-19T01:41:20.319Z,0.00
2022-11-19T01:42:20.338Z,0.69
2022-11-19T01:43:20.368Z,0.00
2022-11-19T01:44:20.446Z,1.22
2022-11-19T01:45:20.488Z,1.01
2022-11-19T01:46:20.538Z,0.90
2022-11-19T01:47:20.620Z,0.00
2022-11-19T01:48:20.646Z,0.00
2022-11-19T01:49:21.069Z,2.07
2022-11-19T01:50:20.700Z,0.58
2022-11-19T01:51:20.748Z,0.00
2022-11-19T01:52:20.772Z,0.00
2022-11-19T01:53:20.789Z,0.00
2022-11-19T01:54:20.809Z,0.00
2022-11-19T01:55:20.829Z,0.00
2022-11-19T01:56:20.901Z,0.00
2022-11-19T01:57:20.970Z,0.00
2022-11-19T01:58:21.041Z,0.80
2022-11-19T01:59:21.439Z,1.96
2022-11-19T02:00:21.099Z,0.00
2022-11-19T02:01:21.186Z,0.47
2022-11-19T02:02:21.192Z,0.00
2022-11-19T02:03:21.212Z,0.00
2022-11-19T02:04:21.201Z,0.00
2022-11-19T02:05:21.241Z,0.00
2022-11-19T02:06:21.232Z,0.00
2022-11-19T02:07:21.258Z,0.00
2022-11-19T02:08:21.271Z,0.00
2022-11-19T02:09:21.548Z,0.00
2022-11-19T02:10:21.292Z,0.00
2022-11-19T02:11:21.313Z,0.00
2022-11-19T02:12:21.381Z,0.00
2022-11-19T02:13:21.422Z,0.00
2022-11-19T02:14:21.432Z,0.00
2022-11-19T02:15:21.470Z,0.00
2022-11-19T02:16:21.542Z,0.00
2022-11-19T02:17:21.523Z,0.00
2022-11-19T02:18:21.572Z,0.00
2022-11-19T02:19:21.778Z,0.00
2022-11-19T02:20:21.653Z,0.00
2022-11-19T02:21:21.664Z,0.00
2022-11-19T02:22:21.654Z,0.00
2022-11-19T02:23:21.652Z,0.00
2022-11-19T02:24:21.655Z,0.00
2022-11-19T02:25:21.665Z,1.22
2022-11-19T02:26:21.704Z,1.44
2022-11-19T02:27:21.753Z,1.01
2022-11-19T02:28:21.775Z,0.00
2022-11-19T02:29:22.110Z,0.90
2022-11-19T02:30:21.878Z,0.00
2022-11-19T02:31:21.885Z,0.47
2022-11-19T02:32:21.906Z,0.69
2022-11-19T02:33:21.897Z,0.00
2022-11-19T02:34:21.914Z,0.00
2022-11-19T02:35:21.973Z,0.00
2022-11-19T02:36:21.977Z,0.00
2022-11-19T02:37:21.978Z,0.00
2022-11-19T02:38:21.955Z,0.00
2022-11-19T02:39:22.073Z,1.75
2022-11-19T02:40:22.075Z,0.00
2022-11-19T02:41:22.095Z,0.00
2022-11-19T02:42:22.166Z,0.00
2022-11-19T02:43:22.199Z,1.96
2022-11-19T02:44:22.257Z,0.00
2022-11-19T02:45:22.248Z,0.00
2022-11-19T02:46:22.235Z,1.65
2022-11-19T02:47:22.255Z,0.00
2022-11-19T02:48:22.236Z,0.00
2022-11-19T02:49:22.256Z,0.00
2022-11-19T02:50:22.258Z,0.00
2022-11-19T02:51:22.294Z,0.00
2022-11-19T02:52:22.378Z,0.00
2022-11-19T02:53:22.368Z,0.80
2022-11-19T02:54:22.442Z,2.07
2022-11-19T02:55:22.517Z,0.00
2022-11-19T02:56:22.489Z,0.00
2022-11-19T02:57:22.529Z,0.69
2022-11-19T02:58:22.589Z,0.47
2022-11-19T02:59:22.588Z,0.69
2022-11-19T03:00:22.609Z,0.00
2022-11-19T03:01:22.661Z,0.58
2022-11-19T03:02:22.590Z,0.00
2022-11-19T03:03:22.614Z,0.00
2022-11-19T03:04:22.622Z,0.00
2022-11-19T03:05:22.638Z,0.00
2022-11-19T03:06:22.728Z,0.58
2022-11-19T03:07:22.770Z,0.90
2022-11-19T03:08:22.809Z,0.00
2022-11-19T03:09:22.860Z,1.33
2022-11-19T03:10:22.930Z,0.00
2022-11-19T03:11:22.961Z,0.00
2022-11-19T03:12:22.970Z,0.00
2022-11-19T03:13:23.029Z,0.00
2022-11-19T03:14:23.060Z,0.00
2022-11-19T03:15:23.049Z,0.00
2022-11-19T03:16:23.131Z,0.00
2022-11-19T03:17:23.139Z,0.58
2022-11-19T03:18:23.180Z,0.00
2022-11-19T03:19:23.208Z,0.00
2022-11-19T03:20:23.239Z,1.65
2022-11-19T03:21:23.278Z,0.00
2022-11-19T03:22:23.302Z,0.00
2022-11-19T03:23:23.371Z,0.00
2022-11-19T03:24:23.400Z,0.69
2022-11-19T03:25:23.381Z,0.00
2022-11-19T03:26:23.451Z,0.00
2022-11-19T03:27:23.521Z,0.00
2022-11-19T03:28:23.510Z,0.00
2022-11-19T03:29:23.571Z,0.00
2022-11-19T03:30:23.561Z,0.00
2022-11-19T03:31:23.562Z,0.00
2022-11-19T03:32:23.626Z,0.00
2022-11-19T03:33:23.663Z,0.00
2022-11-19T03:34:23.691Z,0.00
2022-11-19T03:35:23.691Z,0.00
2022-11-19T03:36:23.732Z,0.00
2022-11-19T03:37:23.821Z,0.00
2022-11-19T03:38:23.834Z,0.00
2022-11-19T03:39:23.895Z,0.00
2022-11-19T03:40:23.912Z,0.00
2022-11-19T03:41:23.923Z,0.80
2022-11-19T03:42:23.913Z,0.00
2022-11-19T03:43:23.943Z,0.00
2022-11-19T03:44:23.963Z,0.00
2022-11-19T03:45:24.013Z,0.00
2022-11-19T03:46:24.028Z,0.00
2022-11-19T03:47:24.025Z,0.00
2022-11-19T03:48:24.025Z,0.00
2022-11-19T03:49:24.023Z,0.00
2022-11-19T03:50:24.014Z,0.00
2022-11-19T03:51:24.014Z,0.00
2022-11-19T03:52:24.055Z,0.69
2022-11-19T03:53:24.076Z,0.00
2022-11-19T03:54:24.066Z,0.00
2022-11-19T03:55:24.136Z,0.00
2022-11-19T03:56:24.134Z,0.00
2022-11-19T03:57:24.175Z,1.01
2022-11-19T03:58:24.215Z,0.00
2022-11-19T03:59:29.195Z,0.00
2022-11-19T04:00:24.225Z,0.00
2022-11-19T04:01:24.296Z,0.00
2022-11-19T04:02:24.225Z,0.00
2022-11-19T04:03:24.296Z,0.47
2022-11-19T04:04:24.347Z,0.69
2022-11-19T04:05:24.386Z,0.00
2022-11-19T04:06:24.377Z,0.00
2022-11-19T04:07:24.424Z,0.00
2022-11-19T04:08:24.436Z,0.00
2022-11-19T04:09:24.456Z,0.00
2022-11-19T04:10:24.456Z,0.00
2022-11-19T04:12:30.438Z,0.00
2022-11-19T04:13:30.500Z,0.00
2022-11-19T04:14:30.503Z,0.00
2022-11-19T04:15:30.521Z,0.00
2022-11-19T04:16:30.510Z,0.00
2022-11-19T04:17:30.501Z,0.00
2022-11-19T04:18:30.513Z,0.00
2022-11-19T04:19:30.491Z,0.00
2022-11-19T04:20:30.551Z,0.00
2022-11-19T04:21:30.721Z,0.00
2022-11-19T04:22:30.672Z,1.33
2022-11-19T04:23:30.692Z,1.22
2022-11-19T04:24:30.735Z,0.00
2022-11-19T04:25:30.783Z,0.00
2022-11-19T04:26:30.792Z,0.00
2022-11-19T04:27:30.763Z,0.00
2022-11-19T04:28:30.813Z,0.00
2022-11-19T04:29:30.822Z,0.00
2022-11-19T04:30:30.832Z,0.00
2022-11-19T04:31:30.913Z,0.00
2022-11-19T04:32:30.903Z,0.00
2022-11-19T04:33:30.974Z,0.00
2022-11-19T04:34:30.974Z,0.00
2022-11-19T04:35:30.976Z,0.00
2022-11-19T04:36:30.973Z,0.00
2022-11-19T04:37:30.982Z,0.00
2022-11-19T04:38:31.052Z,0.00
2022-11-19T04:39:31.075Z,0.00
2022-11-19T04:40:31.084Z,0.00
2022-11-19T04:41:31.103Z,0.00
2022-11-19T04:42:31.126Z,0.58
2022-11-19T04:43:31.197Z,0.00
2022-11-19T04:44:32.179Z,0.00
2022-11-19T04:45:31.286Z,0.00
2022-11-19T04:46:31.296Z,0.00
2022-11-19T04:47:31.313Z,0.00
2022-11-19T04:48:31.294Z,0.00
2022-11-19T04:49:31.335Z,0.00
2022-11-19T04:50:31.384Z,0.00
2022-11-19T04:51:31.525Z,0.00
2022-11-19T04:52:34.099Z,0.00
2022-11-19T04:53:31.453Z,0.00
2022-11-19T04:54:31.516Z,0.00
2022-11-19T04:55:31.552Z,0.00
2022-11-19T04:56:31.576Z,0.00
2022-11-19T04:57:31.595Z,0.00
2022-11-19T04:58:31.606Z,0.00
2022-11-19T04:59:31.760Z,0.00
2022-11-19T05:00:31.617Z,0.00
2022-11-19T05:01:31.749Z,0.00
2022-11-19T05:02:31.665Z,0.00
2022-11-19T05:03:31.677Z,0.00
2022-11-19T05:04:31.757Z,0.00
2022-11-19T05:05:31.814Z,0.00
2022-11-19T05:06:31.827Z,0.00
2022-11-19T05:07:31.890Z,0.00
2022-11-19T05:08:31.846Z,0.00
2022-11-19T05:09:31.848Z,0.00
2022-11-19T05:10:31.896Z,0.00
2022-11-19T05:11:31.896Z,0.00
2022-11-19T05:12:31.947Z,0.00
2022-11-19T05:13:31.956Z,0.00
2022-11-19T05:14:31.977Z,0.00
2022-11-19T05:15:32.018Z,0.00
2022-11-19T05:16:32.027Z,0.00
2022-11-19T05:17:32.057Z,0.00
2022-11-19T05:18:32.088Z,0.00
2022-11-19T05:19:32.078Z,0.00
2022-11-19T05:20:32.127Z,0.58
2022-11-19T05:21:32.177Z,0.47
2022-11-19T05:22:32.168Z,0.00
2022-11-19T05:23:32.187Z,0.00
2022-11-19T05:24:32.207Z,0.00
2022-11-19T05:25:32.208Z,0.00
2022-11-19T05:26:32.226Z,0.00
2022-11-19T05:27:32.239Z,0.00
2022-11-19T05:28:38.516Z,0.00
2022-11-19T05:29:32.253Z,0.00
2022-11-19T05:30:32.275Z,0.00
2022-11-19T05:31:32.289Z,0.00
2022-11-19T05:32:32.313Z,0.00
2022-11-19T05:33:34.172Z,0.00
2022-11-19T05:34:32.384Z,0.00
2022-11-19T05:35:32.417Z,0.00
2022-11-19T05:36:32.431Z,0.00
2022-11-19T05:37:32.439Z,0.00
2022-11-19T05:38:32.460Z,0.00
2022-11-19T05:39:32.489Z,0.00
2022-11-19T05:40:32.530Z,0.00
2022-11-19T05:41:32.541Z,0.00
2022-11-19T05:42:32.540Z,0.00
2022-11-19T05:43:32.551Z,0.00
2022-11-19T05:44:32.581Z,0.00
2022-11-19T05:45:32.608Z,0.00
2022-11-19T05:46:32.621Z,0.00
2022-11-19T05:47:32.623Z,0.00
2022-11-19T05:48:32.632Z,0.00
2022-11-19T05:49:32.651Z,0.00
2022-11-19T05:50:32.661Z,0.00
2022-11-19T05:51:32.659Z,0.00
2022-11-19T05:52:32.691Z,0.00
2022-11-19T05:53:32.711Z,0.00
2022-11-19T05:54:32.771Z,0.00
2022-11-19T05:55:32.728Z,0.00
2022-11-19T05:56:32.751Z,0.00
2022-11-19T05:57:32.782Z,0.00
2022-11-19T05:58:32.791Z,0.00
2022-11-19T05:59:32.832Z,0.00
2022-11-19T06:00:32.853Z,0.00
2022-11-19T06:01:32.862Z,0.00
2022-11-19T06:02:32.889Z,0.00
2022-11-19T06:03:32.901Z,0.00
2022-11-19T06:04:32.912Z,0.00
2022-11-19T06:05:38.742Z,0.00
2022-11-19T06:06:32.945Z,0.00
2022-11-19T06:07:33.042Z,0.00
2022-11-19T06:08:32.952Z,0.00
2022-11-19T06:09:33.011Z,0.69
2022-11-19T06:10:33.013Z,0.00
2022-11-19T06:11:33.033Z,0.00
2022-11-19T06:12:33.064Z,0.00
2022-11-19T06:13:33.131Z,0.00
2022-11-19T06:14:33.160Z,0.00
2022-11-19T06:15:33.183Z,0.00
2022-11-19T06:16:33.211Z,0.00
2022-11-19T06:17:33.234Z,0.00
2022-11-19T06:18:33.274Z,0.00
2022-11-19T06:19:33.253Z,0.69
2022-11-19T06:20:33.274Z,0.00
2022-11-19T06:21:33.303Z,0.00
2022-11-19T06:22:33.334Z,1.12
2022-11-19T06:23:33.334Z,0.00
2022-11-19T06:24:33.384Z,0.00
2022-11-19T06:25:33.426Z,0.00
2022-11-19T06:26:33.504Z,0.00
2022-11-19T06:27:33.483Z,0.00
2022-11-19T06:28:33.534Z,0.00
2022-11-19T06:29:33.573Z,0.00
2022-11-19T06:30:33.577Z,0.00
2022-11-19T06:31:33.644Z,0.00
2022-11-19T06:32:33.684Z,0.00
2022-11-19T06:33:33.727Z,0.00
2022-11-19T06:34:33.715Z,0.47
2022-11-19T06:35:33.840Z,0.00
2022-11-19T06:36:40.176Z,0.00
2022-11-19T06:37:33.794Z,0.00
2022-11-19T06:38:33.785Z,0.47
2022-11-19T06:39:33.878Z,0.58
2022-11-19T06:40:33.862Z,0.69
2022-11-19T06:41:33.919Z,0.58
2022-11-19T06:42:33.956Z,0.58
2022-11-19T06:43:33.995Z,0.00
2022-11-19T06:44:33.994Z,0.00
2022-11-19T06:45:34.006Z,0.00
2022-11-19T06:46:34.036Z,0.00
2022-11-19T06:47:34.065Z,0.47
2022-11-19T06:48:34.109Z,1.01
2022-11-19T06:49:34.067Z,0.47
2022-11-19T06:50:34.097Z,0.00
2022-11-19T06:51:34.128Z,0.00
2022-11-19T06:52:34.177Z,0.00
2022-11-19T06:53:34.253Z,0.69
2022-11-19T06:54:35.823Z,0.47
2022-11-19T06:55:34.306Z,0.00
2022-11-19T06:56:34.376Z,0.00
2022-11-19T06:57:34.395Z,1.33
2022-11-19T06:58:34.388Z,0.00
2022-11-19T06:59:34.448Z,0.00
2022-11-19T07:00:34.420Z,0.58
2022-11-19T07:01:34.632Z,0.00
2022-11-19T07:02:34.508Z,0.47
2022-11-19T07:03:34.688Z,1.01
2022-11-19T07:04:34.597Z,0.47
2022-11-19T07:05:34.628Z,0.00
2022-11-19T07:06:34.618Z,0.47
2022-11-19T07:07:34.744Z,0.00
2022-11-19T07:08:34.698Z,0.00
2022-11-19T07:09:34.727Z,1.01
2022-11-19T07:10:34.778Z,1.12
2022-11-19T07:11:34.838Z,0.80
2022-11-19T07:12:34.860Z,1.12
2022-11-19T07:13:34.878Z,1.01
2022-11-19T07:14:34.931Z,1.01
2022-11-19T07:15:34.999Z,0.58
2022-11-19T07:16:35.064Z,0.58
2022-11-19T07:17:35.070Z,0.90
2022-11-19T07:18:35.090Z,1.75
2022-11-19T07:19:35.118Z,0.80
2022-11-19T07:20:35.189Z,1.01
2022-11-19T07:21:35.179Z,1.86
2022-11-19T07:22:35.224Z,1.01
2022-11-19T07:23:35.259Z,1.12
2022-11-19T07:24:35.300Z,1.12
2022-11-19T07:25:35.362Z,0.69
2022-11-19T07:26:35.416Z,1.33
2022-11-19T07:27:35.455Z,1.65
2022-11-19T07:28:35.470Z,1.12
2022-11-19T07:29:35.470Z,0.90
2022-11-19T07:30:35.532Z,1.33
2022-11-19T07:31:35.600Z,1.96
2022-11-19T07:32:35.590Z,1.01
2022-11-19T07:33:35.672Z,1.44
2022-11-19T07:34:35.641Z,1.75
2022-11-19T07:35:35.642Z,1.01
2022-11-19T07:36:35.659Z,1.54
2022-11-19T07:37:35.672Z,2.07
2022-11-19T07:38:37.129Z,1.54
2022-11-19T07:39:35.682Z,0.90
2022-11-19T07:40:35.751Z,2.48
2022-11-19T07:41:35.771Z,1.54
2022-11-19T07:42:35.799Z,1.86
2022-11-19T07:43:35.833Z,1.54
2022-11-19T07:44:35.824Z,3.20
2022-11-19T07:45:35.813Z,3.40
2022-11-19T07:46:35.820Z,2.38
2022-11-19T07:47:35.853Z,2.48
2022-11-19T07:48:35.872Z,2.48
2022-11-19T07:49:35.880Z,2.28
2022-11-19T07:50:35.933Z,3.10
2022-11-19T07:51:35.952Z,1.75
2022-11-19T07:52:35.983Z,2.28
2022-11-19T07:53:36.003Z,2.69
2022-11-19T07:54:36.004Z,2.69
2022-11-19T07:55:36.013Z,3.10
2022-11-19T07:56:36.025Z,3.00
2022-11-19T07:57:36.066Z,1.86
2022-11-19T07:58:36.054Z,3.51
2022-11-19T07:59:36.123Z,2.79
2022-11-19T08:00:36.155Z,2.07
2022-11-19T08:01:36.218Z,2.17
2022-11-19T08:02:36.223Z,2.69
2022-11-19T08:03:36.244Z,2.90
2022-11-19T08:04:36.281Z,2.69
2022-11-19T08:05:36.302Z,2.69
2022-11-19T08:06:36.387Z,2.79
2022-11-19T08:07:36.462Z,3.00
2022-11-19T08:08:36.471Z,3.40
2022-11-19T08:09:36.489Z,2.59
2022-11-19T08:10:36.513Z,2.59
2022-11-19T08:11:36.520Z,2.38
2022-11-19T08:12:36.524Z,3.51
2022-11-19T08:13:36.527Z,2.69
2022-11-19T08:14:36.556Z,2.38
2022-11-19T08:15:36.595Z,2.90
2022-11-19T08:16:36.610Z,1.65
2022-11-19T08:17:36.616Z,2.38
2022-11-19T08:18:36.614Z,1.75
2022-11-19T08:19:36.670Z,4.21
2022-11-19T08:20:36.717Z,0.00
2022-11-19T08:21:36.738Z,0.00
2022-11-19T08:22:36.786Z,0.00
2022-11-19T08:23:36.798Z,0.00
2022-11-19T08:24:36.796Z,0.00
2022-11-19T08:25:36.806Z,0.00
2022-11-19T08:26:36.816Z,0.00
2022-11-19T08:27:36.896Z,0.00
2022-11-19T08:28:36.966Z,0.58
2022-11-19T08:29:36.938Z,0.47
2022-11-19T08:30:37.007Z,0.90
2022-11-19T08:31:37.069Z,0.47
2022-11-19T08:32:37.067Z,0.47
2022-11-19T08:33:37.127Z,0.00
2022-11-19T08:34:37.179Z,0.80
2022-11-19T08:35:37.188Z,1.22
2022-11-19T08:36:37.198Z,0.58
2022-11-19T08:37:37.230Z,0.80
2022-11-19T08:38:38.857Z,0.00
2022-11-19T08:39:37.288Z,0.69
2022-11-19T08:40:37.348Z,1.01
2022-11-19T08:41:37.369Z,1.44
2022-11-19T08:42:37.389Z,1.65
2022-11-19T08:43:37.419Z,1.65
2022-11-19T08:44:37.429Z,0.58
2022-11-19T08:45:37.440Z,2.07
2022-11-19T08:46:37.439Z,1.22
2022-11-19T08:47:37.460Z,1.22
2022-11-19T08:48:37.439Z,0.80
2022-11-19T08:49:37.515Z,1.75
2022-11-19T08:50:37.499Z,1.22
2022-11-19T08:51:37.529Z,1.01
2022-11-19T08:52:37.614Z,1.33
2022-11-19T08:53:37.589Z,2.28
2022-11-19T08:54:37.601Z,2.28
2022-11-19T08:55:37.600Z,1.33
2022-11-19T08:56:37.649Z,1.75
2022-11-19T08:57:37.712Z,1.54
2022-11-19T08:58:37.722Z,1.86
2022-11-19T08:59:37.761Z,2.07
2022-11-19T09:00:37.885Z,2.48
2022-11-19T09:01:37.863Z,3.20
2022-11-19T09:02:37.900Z,1.96
2022-11-19T09:03:37.950Z,2.17
2022-11-19T09:04:37.971Z,2.69
2022-11-19T09:05:38.041Z,1.33
2022-11-19T09:06:38.102Z,1.65
2022-11-19T09:07:38.203Z,1.75
2022-11-19T09:08:38.223Z,2.38
2022-11-19T09:09:38.205Z,2.38
2022-11-19T09:10:38.274Z,1.96
2022-11-19T09:11:42.360Z,2.38
2022-11-19T09:12:38.300Z,2.79
2022-11-19T09:13:38.332Z,2.69
2022-11-19T09:14:38.323Z,2.07
2022-11-19T09:15:38.392Z,1.75
2022-11-19T09:16:38.452Z,1.86
2022-11-19T09:17:42.418Z,1.86
2022-11-19T09:18:38.543Z,2.17
2022-11-19T09:19:38.563Z,0.80
2022-11-19T09:20:38.563Z,0.00
2022-11-19T09:21:38.629Z,0.00
2022-11-19T09:22:38.625Z,0.00
2022-11-19T09:23:38.643Z,0.00
2022-11-19T09:24:38.644Z,1.44
2022-11-19T09:25:38.704Z,0.00
2022-11-19T09:26:38.748Z,0.00
2022-11-19T09:27:38.789Z,0.00
2022-11-19T09:28:38.834Z,0.00
2022-11-19T09:29:38.894Z,0.47
2022-11-19T09:30:38.955Z,0.00
2022-11-19T09:31:38.995Z,0.47
2022-11-19T09:32:38.974Z,0.00
2022-11-19T09:33:39.015Z,0.58
2022-11-19T09:34:39.034Z,0.00
2022-11-19T09:35:39.044Z,0.80
2022-11-19T09:36:39.099Z,0.00
2022-11-19T09:37:39.165Z,0.00
2022-11-19T09:38:39.197Z,0.47
2022-11-19T09:39:39.265Z,0.00
2022-11-19T09:40:39.295Z,0.90
2022-11-19T09:41:39.311Z,0.00
2022-11-19T09:42:39.396Z,0.47
2022-11-19T09:43:39.450Z,0.00
2022-11-19T09:44:40.168Z,0.47
2022-11-19T09:45:39.506Z,0.00
2022-11-19T09:46:39.545Z,0.00
2022-11-19T09:47:39.551Z,0.47
2022-11-19T09:48:39.546Z,0.58
2022-11-19T09:49:39.607Z,0.58
2022-11-19T09:50:39.615Z,0.47
2022-11-19T09:51:39.657Z,0.69
2022-11-19T09:52:39.647Z,1.33
2022-11-19T09:53:39.725Z,1.65
2022-11-19T09:54:39.750Z,0.69
2022-11-19T09:55:39.797Z,0.69
2022-11-19T09:56:39.868Z,0.58
2022-11-19T09:57:39.889Z,0.90
2022-11-19T09:58:39.948Z,1.01
2022-11-19T09:59:39.917Z,0.90
2022-11-19T10:00:39.988Z,3.81
2022-11-19T10:01:40.049Z,0.58
2022-11-19T10:02:40.139Z,0.00
2022-11-19T10:03:40.179Z,0.80
2022-11-19T10:04:40.180Z,1.33
2022-11-19T10:05:40.169Z,0.00
2022-11-19T10:06:40.222Z,1.12
2022-11-19T10:07:40.282Z,0.00
2022-11-19T10:08:40.239Z,0.00
2022-11-19T10:09:40.290Z,0.58
2022-11-19T10:10:40.260Z,0.47
2022-11-19T10:11:40.328Z,1.96
2022-11-19T10:12:40.331Z,2.38
2022-11-19T10:13:40.391Z,0.58
2022-11-19T10:14:40.391Z,1.54
2022-11-19T10:15:40.400Z,0.47
2022-11-19T10:16:40.453Z,0.00
2022-11-19T10:17:40.482Z,0.90
2022-11-19T10:18:40.511Z,0.58
2022-11-19T10:19:40.544Z,0.47
2022-11-19T10:20:41.252Z,0.69
2022-11-19T10:21:40.571Z,0.47
2022-11-19T10:22:40.622Z,0.58
2022-11-19T10:23:40.704Z,1.65
2022-11-19T10:24:40.762Z,0.69
2022-11-19T10:25:40.820Z,0.58
2022-11-19T10:26:40.852Z,0.58
2022-11-19T10:27:40.913Z,0.80
2022-11-19T10:28:40.972Z,0.90
2022-11-19T10:29:41.043Z,0.58
2022-11-19T10:30:41.095Z,0.47
2022-11-19T10:31:41.073Z,0.69
2022-11-19T10:32:41.097Z,0.69
2022-11-19T10:33:41.171Z,1.54
2022-11-19T10:34:41.195Z,1.33
2022-11-19T10:35:41.191Z,0.00
2022-11-19T10:36:41.248Z,0.00
2022-11-19T10:37:41.283Z,0.00
2022-11-19T10:38:41.297Z,0.00
2022-11-19T10:39:41.345Z,0.00
2022-11-19T10:40:41.396Z,0.00
2022-11-19T10:41:41.404Z,0.00
2022-11-19T10:42:41.455Z,0.00
2022-11-19T10:43:41.530Z,0.00
2022-11-19T10:44:41.536Z,0.00
2022-11-19T10:45:41.596Z,0.00
2022-11-19T10:46:41.676Z,0.00
2022-11-19T10:47:41.676Z,0.00
2022-11-19T10:48:41.737Z,0.00
2022-11-19T10:49:41.759Z,0.00
2022-11-19T10:50:41.800Z,0.00
2022-11-19T10:51:41.817Z,0.69
2022-11-19T10:52:41.845Z,1.65
2022-11-19T10:53:41.890Z,0.00
2022-11-19T10:54:41.961Z,0.00
2022-11-19T10:55:42.019Z,0.00
2022-11-19T10:56:42.059Z,0.00
2022-11-19T10:57:42.069Z,1.75
2022-11-19T10:58:42.109Z,1.01
2022-11-19T10:59:42.175Z,0.00
2022-11-19T11:00:42.278Z,0.00
2022-11-19T11:01:42.269Z,0.80
2022-11-19T11:02:42.310Z,0.00
2022-11-19T11:03:42.372Z,0.00
2022-11-19T11:04:42.421Z,2.48
2022-11-19T11:05:42.470Z,0.00
2022-11-19T11:06:42.460Z,0.00
2022-11-19T11:07:48.537Z,0.00
2022-11-19T11:08:42.540Z,0.58
2022-11-19T11:09:42.593Z,0.80
2022-11-19T11:10:42.651Z,0.00
2022-11-19T11:11:42.702Z,0.00
2022-11-19T11:12:42.752Z,0.69
2022-11-19T11:13:44.263Z,0.00
2022-11-19T11:14:42.792Z,0.47
2022-11-19T11:15:42.803Z,1.44
2022-11-19T11:16:42.803Z,0.00
2022-11-19T11:17:42.873Z,0.00
2022-11-19T11:18:42.913Z,0.00
2022-11-19T11:19:42.908Z,0.00
2022-11-19T11:20:44.479Z,0.00
2022-11-19T11:21:43.016Z,0.00
2022-11-19T11:22:43.124Z,0.80
2022-11-19T11:23:43.098Z,0.00
2022-11-19T11:24:43.085Z,0.00
2022-11-19T11:25:43.076Z,0.00
2022-11-19T11:26:43.075Z,0.47
2022-11-19T11:27:43.094Z,0.00
2022-11-19T11:28:43.075Z,0.00
2022-11-19T11:29:43.097Z,0.00
2022-11-19T11:30:43.157Z,0.00
2022-11-19T11:31:43.196Z,0.00
2022-11-19T11:32:43.249Z,0.69
2022-11-19T11:33:43.266Z,0.00
2022-11-19T11:34:44.070Z,0.00
2022-11-19T11:35:43.377Z,0.00
2022-11-19T11:36:43.416Z,0.00
2022-11-19T11:37:43.477Z,0.00
2022-11-19T11:38:43.509Z,0.00
2022-11-19T11:39:44.274Z,0.00
2022-11-19T11:40:43.538Z,0.00
2022-11-19T11:42:43.589Z,0.00
2022-11-19T11:43:43.599Z,0.00
2022-11-19T11:44:43.629Z,0.00
2022-11-19T11:45:43.651Z,0.00
2022-11-19T11:46:43.690Z,0.00
2022-11-19T11:47:43.729Z,0.00
2022-11-19T11:48:43.782Z,0.58
2022-11-19T11:49:43.832Z,0.00
2022-11-19T11:50:43.840Z,0.00
2022-11-19T11:51:43.872Z,0.00
2022-11-19T11:52:43.919Z,0.00
2022-11-19T11:53:43.961Z,0.00
2022-11-19T11:54:44.012Z,0.00
2022-11-19T11:55:44.020Z,0.00
2022-11-19T11:56:44.043Z,0.00
2022-11-19T11:57:44.061Z,0.00
2022-11-19T11:58:44.082Z,0.00
2022-11-19T11:59:44.101Z,0.00
2022-11-19T12:00:44.123Z,0.00
2022-11-19T12:01:44.134Z,0.00
2022-11-19T12:02:44.248Z,0.00
2022-11-19T12:03:54.682Z,0.00
2022-11-19T12:04:44.333Z,1.96
2022-11-19T12:05:44.374Z,0.00
2022-11-19T12:06:44.404Z,0.00
2022-11-19T12:07:44.500Z,0.00
2022-11-19T12:08:44.473Z,0.00
2022-11-19T12:09:44.514Z,0.80
2022-11-19T12:10:44.524Z,0.00
2022-11-19T12:11:44.504Z,0.00
2022-11-19T12:12:44.514Z,0.00
2022-11-19T12:13:44.583Z,0.00
2022-11-19T12:14:46.881Z,0.58
2022-11-19T12:15:44.557Z,1.75
2022-11-19T12:16:44.632Z,0.00
2022-11-19T12:17:44.656Z,0.00
2022-11-19T12:18:44.722Z,1.12
2022-11-19T12:19:44.716Z,1.75
2022-11-19T12:20:44.778Z,1.54
2022-11-19T12:21:44.827Z,0.00
2022-11-19T12:22:44.860Z,0.90
2022-11-19T12:23:44.908Z,1.86
2022-11-19T12:24:44.887Z,1.12
2022-11-19T12:25:44.939Z,0.00
2022-11-19T12:26:44.927Z,0.47
2022-11-19T12:27:44.958Z,0.00
2022-11-19T12:28:44.959Z,1.33
2022-11-19T12:29:44.979Z,0.00
2022-11-19T12:30:45.027Z,1.44
2022-11-19T12:31:45.009Z,0.00
2022-11-19T12:32:45.020Z,0.00
2022-11-19T12:33:45.009Z,0.00
2022-11-19T12:34:45.011Z,0.00
2022-11-19T12:35:45.011Z,0.00
2022-11-19T12:36:45.060Z,0.00
2022-11-19T12:37:45.120Z,0.00
2022-11-19T12:38:45.171Z,0.47
2022-11-19T12:39:45.240Z,0.00
2022-11-19T12:40:45.241Z,0.00
2022-11-19T12:41:45.299Z,0.00
2022-11-19T12:42:45.332Z,0.00
2022-11-19T12:43:45.392Z,0.90
2022-11-19T12:44:45.462Z,0.00
2022-11-19T12:45:45.501Z,0.00
2022-11-19T12:46:45.680Z,1.65
2022-11-19T12:47:45.622Z,0.00
2022-11-19T12:48:45.653Z,0.00
2022-11-19T12:49:45.704Z,0.00
2022-11-19T12:50:45.745Z,0.00
2022-11-19T12:51:45.774Z,0.00
2022-11-19T12:52:45.784Z,0.00
2022-11-19T12:53:45.833Z,0.00
2022-11-19T12:54:45.846Z,0.00
2022-11-19T12:55:45.884Z,0.00
2022-11-19T12:56:45.887Z,0.00
2022-11-19T12:57:45.964Z,1.44
2022-11-19T12:58:46.014Z,0.00
2022-11-19T12:59:46.023Z,0.00
2022-11-19T13:00:46.055Z,0.00
2022-11-19T13:01:46.119Z,0.00
2022-11-19T13:02:46.125Z,0.00
2022-11-19T13:03:46.156Z,0.69
2022-11-19T13:04:46.218Z,0.00
2022-11-19T13:05:46.267Z,0.00
2022-11-19T13:06:46.307Z,0.00
2022-11-19T13:07:46.316Z,0.00
2022-11-19T13:08:46.368Z,0.00
2022-11-19T13:09:46.388Z,0.00
2022-11-19T13:10:46.458Z,0.00
2022-11-19T13:11:46.916Z,0.00
2022-11-19T13:12:46.540Z,0.00
2022-11-19T13:13:46.548Z,0.00
2022-11-19T13:14:49.528Z,0.00
2022-11-19T13:15:46.649Z,0.00
2022-11-19T13:16:46.689Z,0.00
2022-11-19T13:17:46.720Z,0.00
2022-11-19T13:18:46.787Z,0.00
2022-11-19T13:19:46.840Z,0.58
2022-11-19T13:20:46.869Z,0.00